Latest Weather Observations for East Sale

IDV60801

Issued at 10:31 am EDT Friday 27 March 2015 (issued every 30 minutes, with the page automatically refreshed every 10 minutes)

About weather observations | Map of weather stations | Latest weather observations for VIC | Other Formats
Station Details ID: 085072 Name: EAST SALE AIRPORT Lat: -38.12 Lon: 147.13 Height: 4.6 m
Data from the previous 72 hours. | See also: Recent months at East Sale
Date/Time
EDT
Temp
°C
App
Temp
°C
Dew
Point
Rel
Hum
%
Delta-T
°C
Wind Press
QNH
hPa
Press
MSL
hPa
Rain
since 9 am
mm
Dir
 
Spd
km/h
Gust
km/h
Spd
kts
Gust
kts
27/10:24am 13.3 3.7 10.8 85 1.3 W 52 69 28 37 1019.1 1019.1 0.6
27/10:14am 13.8 6.2 10.6 81 1.7 W 41 59 22 32 1018.7 1018.7 0.0
27/10:00am 13.3 6.1 10.5 83 1.5 W 39 56 21 30 1018.8 1018.8 0.0
27/09:30am 13.5 4.9 10.3 81 1.7 W 46 65 25 35 1018.5 1018.5 0.0
27/09:05am 14.1 5.5 10.3 78 2.0 W 46 65 25 35 1017.8 1017.8 0.0
27/08:58am 13.7 5.4 10.1 79 1.9 WNW 44 63 24 34 1017.7 1017.7 1.4
27/08:30am 12.9 4.1 9.5 80 1.7 WNW 46 61 25 33 1017.3 1017.3 1.4
27/08:24am 13.0 5.1 9.4 79 1.8 WNW 41 59 22 32 1017.2 1017.2 1.4
27/08:00am 12.6 5.1 9.4 81 1.6 WNW 39 50 21 27 1017.3 1017.3 1.4
27/07:30am 12.4 3.9 9.4 82 1.5 WNW 44 56 24 30 1017.2 1017.2 1.4
27/07:00am 12.3 5.1 9.1 81 1.6 WNW 37 46 20 25 1016.8 1016.8 1.2
27/06:30am 12.5 4.9 9.0 79 1.8 WNW 39 52 21 28 1016.5 1016.5 1.2
27/06:00am 12.3 5.6 9.5 83 1.4 WNW 35 48 19 26 1016.3 1016.3 1.2
27/05:30am 12.0 6.4 10.1 88 1.0 WNW 30 37 16 20 1016.4 1016.4 1.2
27/05:21am 11.9 6.3 10.0 88 1.0 WNW 30 37 16 20 1016.3 1016.3 1.2
27/05:05am 12.0 4.3 10.1 88 1.0 WNW 41 59 22 32 1016.2 1016.2 1.2
27/05:02am 12.2 4.1 10.1 87 1.1 WNW 43 59 23 32 1016.3 1016.3 1.2
27/05:00am 12.4 4.7 10.0 85 1.2 WNW 41 56 22 30 1016.3 1016.3 1.0
27/04:30am 12.5 5.0 9.3 81 1.6 WNW 39 52 21 28 1016.1 1016.1 0.8
27/04:29am 12.5 5.0 9.5 82 1.5 W 39 52 21 28 1016.1 1016.1 0.8
27/04:10am 12.4 3.3 9.8 84 1.3 WNW 48 67 26 36 1016.1 1016.1 0.8
27/04:04am 13.1 4.6 9.2 77 2.0 WNW 44 67 24 36 1015.8 1015.8 0.4
27/04:00am 13.7 6.1 9.0 73 2.4 WNW 39 54 21 29 1016.0 1016.0 0.4
27/03:56am 13.8 6.8 8.4 70 2.7 WNW 35 54 19 29 1015.9 1015.9 0.4
27/03:30am 13.4 6.8 8.5 72 2.4 WNW 33 46 18 25 1015.8 1015.8 0.2
27/03:24am 13.6 7.9 8.4 71 2.6 WNW 28 46 15 25 1015.9 1015.9 0.2
27/03:00am 12.6 8.8 9.1 79 1.8 WNW 19 24 10 13 1015.9 1015.9 0.2
27/02:30am 12.9 8.0 8.6 75 2.1 W 24 32 13 17 1016.1 1016.1 0.0
27/02:00am 13.0 9.0 8.3 73 2.3 W 19 30 10 16 1016.2 1016.2 0.0
27/01:30am 14.3 9.8 7.1 62 3.5 WNW 20 32 11 17 1016.2 1016.2 0.0
27/01:00am 14.1 9.7 6.5 60 3.7 WNW 19 22 10 12 1016.2 1016.2 0.0
27/12:30am 14.6 8.7 5.7 55 4.2 WNW 26 35 14 19 1016.3 1016.3 0.0
27/12:00am 14.6 8.2 5.1 53 4.5 WNW 28 35 15 19 1015.8 1015.8 0.0
 
Date/Time
EDT
Temp
°C
App
Temp
°C
Dew
Point
Rel
Hum
%
Delta-T
°C
Wind Press
QNH
hPa
Press
MSL
hPa
Rain
since 9 am
mm
Dir
 
Spd
km/h
Gust
km/h
Spd
kts
Gust
kts
26/11:30pm 14.8 7.4 4.8 51 4.7 WNW 33 44 18 24 1015.8 1015.8 0.0
26/11:00pm 14.7 6.8 4.1 49 4.9 NW 35 50 19 27 1015.8 1015.8 0.0
26/10:30pm 14.6 6.6 3.7 48 5.0 WNW 35 46 19 25 1015.8 1015.8 0.0
26/10:00pm 14.9 7.4 3.7 47 5.1 WNW 32 41 17 22 1015.9 1015.9 0.0
26/09:30pm 14.8 5.8 2.7 44 5.4 WNW 39 50 21 27 1015.8 1015.8 0.0
26/09:21pm 15.0 7.3 2.5 43 5.6 WNW 32 48 17 26 1015.8 1015.8 0.0
26/09:00pm 14.6 8.9 3.1 46 5.2 WNW 22 33 12 18 1015.8 1015.8 0.0
26/08:00pm 16.4 10.0 0.9 35 6.7 WNW 24 37 13 20 1015.6 1015.6 0.0
26/07:30pm 15.7 10.1 1.4 38 6.3 WNW 20 24 11 13 1015.3 1015.3 0.0
26/07:00pm 16.6 9.5 1.1 35 6.8 NW 28 39 15 21 1015.2 1015.2 0.0
26/06:00pm 17.7 9.7 0.4 31 7.5 NW 32 46 17 25 1014.7 1014.7 0.0
26/05:30pm 18.4 10.2 0.5 30 7.9 NW 33 46 18 25 1014.4 1014.4 0.0
26/05:00pm 18.9 10.9 1.4 31 7.9 WNW 33 44 18 24 1014.6 1014.6 0.0
26/04:30pm 19.0 11.0 0.1 28 8.3 WNW 32 46 17 25 1014.5 1014.5 0.0
26/04:09pm 19.6 10.7 0.6 28 8.5 WNW 37 56 20 30 1014.8 1014.8 0.0
26/04:00pm 18.5 10.5 0.6 30 7.9 W 32 41 17 22 1015.0 1015.0 0.0
26/03:30pm 19.2 11.3 1.2 30 8.1 W 32 43 17 23 1015.3 1015.3 0.0
26/03:00pm 18.9 10.9 1.9 32 7.7 NW 33 46 18 25 1015.2 1015.2 0.0
26/02:30pm 18.1 10.3 1.6 33 7.4 W 32 43 17 23 1015.5 1015.5 0.0
26/02:00pm 16.7 9.3 1.6 36 6.7 WNW 30 43 16 23 1015.8 1015.8 0.0
26/01:30pm 18.4 11.4 4.2 39 6.7 WNW 30 39 16 21 1016.0 1016.0 0.0
26/01:00pm 17.8 10.8 4.0 40 6.5 W 30 44 16 24 1016.2 1016.2 0.0
26/12:30pm 16.8 9.4 3.8 42 6.0 W 32 46 17 25 1016.5 1016.5 0.0
26/12:00pm 16.6 9.3 4.3 44 5.8 W 32 44 17 24 1016.9 1016.9 0.0
26/11:30am 15.6 6.9 4.3 47 5.3 W 39 54 21 29 1017.1 1017.1 0.0
26/11:19am 15.3 7.5 4.7 49 5.0 W 35 56 19 30 1017.1 1017.1 0.0
26/11:00am 14.3 7.0 4.3 51 4.6 W 32 41 17 22 1017.2 1017.2 0.0
26/10:30am 14.4 7.5 6.5 59 3.8 WSW 32 46 17 25 1017.2 1017.2 0.0
26/10:00am 12.2 5.1 5.6 64 3.1 WSW 32 44 17 24 1017.2 1017.2 0.0
26/09:30am 11.4 6.5 6.7 73 2.2 W 22 35 12 19 1017.3 1017.3 0.0
26/09:00am 10.7 5.4 6.6 76 1.9 W 24 33 13 18 1017.0 1017.0 0.2
26/08:34am 10.9 4.3 5.9 71 2.3 WSW 30 48 16 26 1016.4 1016.4 0.2
26/08:30am 10.9 3.9 6.1 72 2.2 WSW 32 48 17 26 1016.5 1016.5 0.2
26/08:00am 11.0 4.6 6.9 76 1.9 WSW 30 44 16 24 1016.0 1016.0 0.2
26/07:44am 11.3 4.4 6.6 73 2.2 WSW 32 52 17 28 1015.8 1015.8 0.2
26/07:30am 11.4 5.3 6.7 73 2.2 WSW 28 37 15 20 1015.5 1015.5 0.2
26/07:00am 11.2 5.5 6.9 75 2.0 WSW 26 33 14 18 1015.0 1015.0 0.2
26/06:30am 10.6 7.2 7.5 81 1.5 WSW 15 20 8 11 1014.8 1014.8 0.2
26/06:00am 10.3 7.2 7.2 81 1.5 WSW 13 20 7 11 1014.8 1014.8 0.2
26/05:30am 10.7 5.2 7.6 81 1.5 WSW 26 39 14 21 1014.9 1014.9 0.2
26/05:00am 11.1 6.2 8.5 84 1.3 W 24 32 13 17 1014.7 1014.7 0.2
26/04:30am 11.4 8.2 9.8 90 0.8 NW 17 39 9 21 1014.3 1014.3 0.2
26/04:00am 10.3 8.4 9.1 92 0.6 NNW 9 13 5 7 1013.9 1013.9 0.2
26/03:30am 11.9 10.5 10.8 93 0.6 WNW 9 11 5 6 1014.3 1014.3 0.2
26/03:00am 11.7 10.3 10.9 95 0.4 WNW 9 11 5 6 1014.3 1014.3 0.2
26/02:30am 11.6 9.4 10.8 95 0.4 NNW 13 13 7 7 1014.5 1014.5 0.2
26/02:00am 11.3 9.0 10.4 94 0.5 NW 13 15 7 8 1014.5 1014.5 0.2
26/01:30am 12.1 10.7 11.0 93 0.6 W 9 13 5 7 1014.4 1014.4 0.2
26/01:00am 12.2 9.9 11.6 96 0.3 WNW 15 26 8 14 1014.5 1014.5 0.2
26/12:30am 12.1 9.6 11.2 94 0.5 WNW 15 17 8 9 1013.9 1013.9 0.2
26/12:00am 12.6 11.5 11.8 95 0.4 WNW 9 15 5 8 1014.0 1014.0 0.2
 
Date/Time
EDT
Temp
°C
App
Temp
°C
Dew
Point
Rel
Hum
%
Delta-T
°C
Wind Press
QNH
hPa
Press
MSL
hPa
Rain
since 9 am
mm
Dir
 
Spd
km/h
Gust
km/h
Spd
kts
Gust
kts
25/11:30pm 12.4 11.7 11.5 94 0.5 WNW 6 7 3 4 1014.0 1014.0 0.2
25/11:00pm 12.9 12.3 11.8 93 0.6 W 6 9 3 5 1014.4 1014.4 0.2
25/10:30pm 13.2 12.4 11.8 91 0.7 E 7 9 4 5 1014.4 1014.4 0.2
25/10:00pm 13.8 11.6 12.0 89 1.0 ENE 15 17 8 9 1014.6 1014.6 0.2
25/09:30pm 15.2 14.1 13.1 87 1.2 ENE 11 13 6 7 1014.8 1014.8 0.2
25/09:00pm 15.5 14.7 12.8 84 1.5 ENE 9 13 5 7 1014.9 1014.9 0.2
25/08:30pm 15.2 12.8 12.5 84 1.5 E 17 20 9 11 1014.7 1014.7 0.2
25/08:00pm 15.4 12.5 12.3 82 1.7 E 19 22 10 12 1014.6 1014.6 0.2
25/07:30pm 15.7 12.8 12.3 80 1.9 E 19 22 10 12 1014.6 1014.6 0.2
25/07:00pm 15.9 12.9 12.1 78 2.1 E 19 26 10 14 1014.5 1014.5 0.2
25/06:30pm 16.1 13.0 12.1 77 2.2 ESE 20 28 11 15 1014.7 1014.7 0.2
25/06:00pm 16.4 12.8 12.0 75 2.4 ESE 22 28 12 15 1014.6 1014.6 0.2
25/05:30pm 16.7 13.6 12.3 75 2.4 E 20 26 11 14 1014.5 1014.5 0.2
25/05:00pm 17.0 12.9 11.5 70 3.0 E 24 26 13 14 1014.3 1014.3 0.2
25/04:30pm 17.9 13.9 11.9 68 3.3 E 24 30 13 16 1014.4 1014.4 0.2
25/04:00pm 18.3 14.6 11.6 65 3.7 ESE 22 32 12 17 1014.4 1014.4 0.2
25/03:30pm 18.1 14.4 11.4 65 3.7 E 22 26 12 14 1015.1 1015.1 0.2
25/03:00pm 17.3 14.0 10.9 66 3.4 E 19 26 10 14 1015.4 1015.4 0.2
25/02:30pm 17.4 14.5 11.0 66 3.4 E 17 22 9 12 1015.9 1015.9 0.2
25/02:00pm 17.2 14.9 10.3 64 3.7 ENE 13 22 7 12 1016.6 1016.6 0.2
25/01:30pm 17.1 14.9 10.9 67 3.3 ESE 13 17 7 9 1017.1 1017.1 0.2
25/01:00pm 16.5 15.1 11.0 70 2.9 NE 9 13 5 7 1018.0 1018.0 0.2
25/12:30pm 16.7 15.2 12.0 74 2.6 NE 11 17 6 9 1018.4 1018.4 0.2
25/12:00pm 15.7 13.7 11.5 76 2.3 N 13 17 7 9 1018.6 1018.6 0.2
25/11:58am 15.4 13.3 11.2 76 2.2 N 13 17 7 9 1018.6 1018.6 0.2
25/11:30am 15.9 14.7 11.5 75 2.4 N 9 13 5 7 1018.9 1018.9 0.2
25/11:00am 15.2 14.3 11.4 78 2.0 NW 7 11 4 6 1019.5 1019.5 0.2
25/10:30am 13.4 12.5 11.3 87 1.1 SW 7 9 4 5 1019.7 1019.7 0.2
25/10:22am 12.9 12.1 11.0 88 1.0 WSW 6 9 3 5 1019.7 1019.7 0.2
25/10:00am 12.4 10.7 11.1 92 0.7 WNW 11 15 6 8 1019.8 1019.8 0.2
25/09:30am 12.0 9.1 10.9 93 0.6 WNW 17 20 9 11 1020.1 1020.1 0.0
25/09:00am 12.0 9.1 10.9 93 0.6 WNW 17 19 9 10 1019.5 1019.5 11.2
25/08:30am 11.8 9.3 10.9 94 0.5 W 15 20 8 11 1019.1 1019.1 11.0
25/08:00am 12.0 9.1 11.1 94 0.5 W 17 20 9 11 1018.8 1018.8 11.0
25/07:30am 12.0 9.8 10.9 93 0.6 WNW 13 15 7 8 1018.8 1018.8 11.0
25/07:00am 12.0 10.3 11.2 95 0.4 WNW 11 13 6 7 1018.6 1018.6 11.0
25/06:30am 11.9 9.8 11.0 94 0.5 NW 13 15 7 8 1018.3 1018.3 11.0
25/06:00am 11.8 10.0 10.9 94 0.5 WNW 11 13 6 7 1018.2 1018.2 11.0
25/05:30am 11.8 9.7 11.0 95 0.4 NW 13 17 7 9 1018.4 1018.4 10.8
25/05:11am 11.9 9.4 11.0 94 0.5 WNW 15 19 8 10 1018.2 1018.2 10.8
25/05:00am 11.9 9.7 10.8 93 0.6 NW 13 17 7 9 1018.3 1018.3 10.8
25/04:30am 11.9 9.7 10.8 93 0.6 NW 13 17 7 9 1018.1 1018.1 10.8
25/04:19am 11.8 9.3 10.9 94 0.5 WNW 15 20 8 11 1018.1 1018.1 10.8
25/04:00am 11.9 8.6 10.8 93 0.6 WNW 19 20 10 11 1017.9 1017.9 10.8
25/03:30am 12.1 8.8 11.0 93 0.6 WNW 19 22 10 12 1018.1 1018.1 10.8
25/03:21am 12.2 9.3 11.1 93 0.6 WNW 17 22 9 12 1018.1 1018.1 10.8
25/03:00am 12.2 9.4 11.3 94 0.5 WNW 17 20 9 11 1018.2 1018.2 10.8
25/02:30am 12.2 10.6 11.4 95 0.4 WSW 11 15 6 8 1018.0 1018.0 10.8
25/02:00am 12.2 9.8 11.3 94 0.5 W 15 20 8 11 1018.3 1018.3 10.8
25/01:30am 12.2 9.0 11.3 94 0.5 W 19 22 10 12 1018.6 1018.6 10.8
25/01:06am 12.3 9.5 11.5 95 0.4 W 17 22 9 12 1018.8 1018.8 10.8
25/01:00am 12.3 9.9 11.5 95 0.4 W 15 20 8 11 1018.7 1018.7 10.8
25/12:30am 12.6 9.9 11.7 94 0.5 WSW 17 22 9 12 1018.7 1018.7 10.8
25/12:00am 12.9 9.7 11.8 93 0.6 SW 20 26 11 14 1018.8 1018.8 10.8
 
Date/Time
EDT
Temp
°C
App
Temp
°C
Dew
Point
Rel
Hum
%
Delta-T
°C
Wind Press
QNH
hPa
Press
MSL
hPa
Rain
since 9 am
mm
Dir
 
Spd
km/h
Gust
km/h
Spd
kts
Gust
kts
24/11:45pm 12.9 9.8 12.1 95 0.4 SW 20 30 11 16 1018.9 1018.9 10.8
24/11:30pm 13.2 11.2 12.6 96 0.3 SW 15 19 8 10 1018.9 1018.9 10.6
24/11:00pm 12.7 10.1 12.1 96 0.3 W 17 20 9 11 1019.0 1019.0 9.2
24/10:30pm 13.0 10.0 12.4 96 0.3 W 20 24 11 13 1018.9 1018.9 7.0
24/10:00pm 12.9 10.4 12.3 96 0.3 WSW 17 24 9 13 1019.0 1019.0 6.0
24/09:44pm 12.9 10.0 12.3 96 0.3 W 19 24 10 13 1018.8 1018.8 4.0
24/09:30pm 12.8 9.8 12.0 95 0.4 W 19 26 10 14 1018.8 1018.8 2.8
24/09:19pm 12.9 9.7 12.0 94 0.5 WSW 20 28 11 15 1018.7 1018.7 1.2
24/09:00pm 13.1 9.8 11.5 90 0.8 WSW 20 26 11 14 1018.4 1018.4 0.4
24/08:30pm 13.5 10.0 11.0 85 1.3 W 20 26 11 14 1018.0 1018.0 0.0
24/08:00pm 13.6 10.1 10.9 84 1.4 W 20 26 11 14 1017.6 1017.6 0.0
24/07:30pm 13.8 10.5 10.8 82 1.6 W 19 28 10 15 1017.2 1017.2 0.0
24/07:00pm 14.4 10.8 10.6 78 2.0 WSW 20 30 11 16 1016.9 1016.9 0.0
24/06:30pm 15.0 10.1 10.0 72 2.6 W 26 35 14 19 1016.3 1016.3 0.0
24/06:00pm 15.7 10.1 10.0 69 3.0 W 30 37 16 20 1015.6 1015.6 0.0
24/05:30pm 17.1 11.8 10.0 63 3.7 WSW 28 35 15 19 1015.3 1015.3 0.0
24/05:00pm 17.5 11.5 10.1 62 3.9 W 32 43 17 23 1015.0 1015.0 0.0
24/04:30pm 17.8 12.6 10.2 61 4.0 W 28 37 15 20 1014.9 1014.9 0.0
24/04:00pm 18.6 13.3 9.9 57 4.6 W 28 39 15 21 1014.9 1014.9 0.0
24/03:30pm 17.6 11.8 9.5 59 4.2 W 30 41 16 22 1014.8 1014.8 0.0
24/03:00pm 18.0 12.2 9.6 58 4.4 W 30 41 16 22 1014.9 1014.9 0.0
24/02:30pm 17.2 11.6 8.9 58 4.3 W 28 37 15 20 1014.9 1014.9 0.0
24/02:00pm 17.6 11.3 9.0 57 4.5 W 32 43 17 23 1015.1 1015.1 0.0
24/01:30pm 16.5 10.1 8.7 60 4.0 W 32 41 17 22 1015.2 1015.2 0.0
24/01:00pm 17.0 10.3 8.2 56 4.5 W 33 43 18 23 1015.4 1015.4 0.0
24/12:30pm 17.0 11.2 7.9 55 4.6 W 28 35 15 19 1015.9 1015.9 0.0
24/12:00pm 16.5 10.7 8.0 57 4.3 W 28 37 15 20 1016.0 1016.0 0.0
24/11:30am 15.6 10.1 7.4 58 4.1 WSW 26 35 14 19 1016.1 1016.1 0.0
24/11:00am 15.5 9.6 7.5 59 4.0 W 28 41 15 22 1016.2 1016.2 0.0

Other Formats:

Comma delimited format used in spreadsheet applications
http://www.bom.gov.au/fwo/IDV60801/IDV60801.94907.axf

JavaScript Object Notation format (JSON) in row-major order
http://www.bom.gov.au/fwo/IDV60801/IDV60801.94907.json